| time (UTC) | temp C | wind direction | speed KPH | gust KPH | rain 1hr cm | rain 24hr cm | rain mn cm | humidity % | barometer mb |
| 20260831010018 | 25 | 31 | 0.0 | 3.2 | 0.00 | 3.68 | 3.68 | 96 | 1016.9 |
| 20260831005015 | 25 | 343 | 0.0 | 3.2 | 0.00 | 3.68 | 3.68 | 96 | 1016.8 |
| 20260831004015 | 25 | 328 | 0.0 | 1.6 | 0.00 | 3.68 | 3.68 | 95 | 1016.8 |
| 20260831003015 | 25 | 325 | 0.0 | 1.6 | 0.00 | 3.68 | 3.68 | 95 | 1016.7 |
| 20260831002015 | 25 | 328 | 0.0 | 1.6 | 0.00 | 3.68 | 3.68 | 95 | 1016.6 |
| 20260831001016 | 25 | 332 | 1.6 | 3.2 | 0.00 | 3.68 | 3.68 | 95 | 1016.5 |
| 20260831000016 | 25 | 312 | 0.0 | 1.6 | 0.00 | 3.68 | 3.68 | 95 | 1016.3 |
| 20260830235016 | 26 | 11 | 0.0 | 1.6 | 0.00 | 3.68 | 3.68 | 94 | 1016.0 |
| 20260830233016 | 26 | 341 | 0.0 | 1.6 | 0.00 | 3.68 | 3.68 | 93 | 1015.8 |
| 20260830232017 | 26 | 22 | 0.0 | 4.8 | 0.00 | 3.68 | 3.68 | 93 | 1015.6 |
| 20260830231017 | 26 | 355 | 1.6 | 4.8 | 0.00 | 3.68 | 3.68 | 92 | 1015.5 |
| 20260830230017 | 26 | 10 | 1.6 | 6.4 | 0.00 | 3.68 | 3.68 | 92 | 1015.5 |
| 20260830225017 | 26 | 250 | 0.0 | 3.2 | 0.00 | 3.68 | 3.68 | 91 | 1015.5 |
| 20260830224017 | 26 | 356 | 1.6 | 4.8 | 0.00 | 3.68 | 3.68 | 91 | 1015.8 |
| 20260830221015 | 26 | 287 | 0.0 | 1.6 | 0.05 | 3.68 | 3.68 | 93 | 1015.9 |
| 20260830215015 | 26 | 48 | 0.0 | 1.6 | 0.05 | 3.68 | 3.68 | 91 | 1015.9 |
| 20260830213016 | 26 | 300 | 1.6 | 3.2 | 0.05 | 3.68 | 3.66 | 89 | 1016.0 |
| 20260830212016 | 27 | 331 | 1.6 | 3.2 | 0.03 | 3.68 | 3.63 | 87 | 1016.0 |
| 20260830211156 | 27 | 305 | 1.6 | 1.6 | 0.03 | 3.71 | 3.63 | 89 | 1015.8 |
| 20260830210016 | 27 | 324 | 0.0 | 3.2 | 0.03 | 3.73 | 3.63 | 88 | 1015.9 |
| 20260830205016 | 28 | 313 | 1.6 | 3.2 | 0.00 | 3.73 | 3.61 | 85 | 1015.9 |
| 20260830204016 | 28 | 356 | 1.6 | 6.4 | 0.00 | 3.76 | 3.61 | 81 | 1015.8 |
| 20260830203017 | 29 | 13 | 1.6 | 4.8 | 0.00 | 3.78 | 3.61 | 79 | 1015.8 |
| 20260830202017 | 30 | 0 | 1.6 | 6.4 | 0.00 | 3.81 | 3.61 | 78 | 1015.8 |
| 20260830201017 | 31 | 321 | 0.0 | 3.2 | 0.00 | 3.81 | 3.61 | 76 | 1016.0 |
| 20260830200017 | 32 | 357 | 4.8 | 11.3 | 0.00 | 3.81 | 3.61 | 72 | 1016.0 |
| 20260830195017 | 32 | 351 | 3.2 | 6.4 | 0.00 | 3.81 | 3.61 | 68 | 1016.0 |
| 20260830194018 | 31 | 352 | 3.2 | 6.4 | 0.00 | 3.81 | 3.61 | 72 | 1016.2 |
| 20260830193018 | 31 | 2 | 6.4 | 12.9 | 0.00 | 3.81 | 3.61 | 73 | 1016.4 |
| 20260830191015 | 30 | 227 | 4.8 | 6.4 | 0.00 | 3.81 | 3.61 | 76 | 1016.5 |
| 20260830190015 | 30 | 224 | 4.8 | 8.0 | 0.00 | 3.81 | 3.61 | 80 | 1016.3 |
| 20260830185015 | 28 | 226 | 6.4 | 8.0 | 0.05 | 3.81 | 3.61 | 82 | 1016.7 |
| 20260830184016 | 28 | 226 | 6.4 | 8.0 | 0.08 | 3.81 | 3.61 | 87 | 1016.7 |
| 20260830183016 | 27 | 224 | 6.4 | 8.0 | 0.08 | 3.81 | 3.61 | 93 | 1016.8 |
| 20260830181016 | 26 | 222 | 6.4 | 16.1 | 0.08 | 3.81 | 3.61 | 96 | 1017.1 |
| 20260830180016 | 25 | 221 | 6.4 | 46.7 | 0.10 | 3.81 | 3.61 | 97 | 1017.0 |
| 20260830175017 | 25 | 221 | 4.8 | 8.0 | 0.28 | 3.78 | 3.58 | 97 | 1017.0 |
| 20260830174017 | 25 | 223 | 3.2 | 4.8 | 1.14 | 3.94 | 3.56 | 97 | 1016.9 |
| 20260830173017 | 25 | 225 | 6.4 | 32.2 | 2.84 | 3.99 | 3.53 | 98 | 1016.5 |
| 20260830172017 | 24 | 221 | 46.7 | 86.9 | 3.53 | 3.99 | 3.53 | 97 | 1016.9 |
| 20260830171017 | 23 | 216 | 30.6 | 112.7 | 3.53 | 4.01 | 3.53 | 97 | 1017.2 |
| 20260830170017 | 23 | 208 | 30.6 | 135.2 | 3.51 | 3.99 | 3.51 | 96 | 1017.5 |
| 20260830165018 | 24 | 211 | 30.6 | 112.7 | 3.30 | 3.76 | 3.30 | 96 | 1017.6 |
| 20260830164018 | 25 | 218 | 25.7 | 107.8 | 2.39 | 2.90 | 2.39 | 95 | 1018.0 |
| 20260830162018 | 27 | 28 | 3.2 | 8.0 | 0.00 | 0.51 | 0.00 | 82 | 1017.3 |
| 20260830161018 | 27 | 15 | 3.2 | 8.0 | 0.00 | 0.51 | 0.00 | 80 | 1017.2 |
| 20260830160015 | 28 | 18 | 4.8 | 8.0 | 0.00 | 0.51 | 0.00 | 75 | 1017.2 |
| 20260830155019 | 30 | 17 | 3.2 | 11.3 | 0.00 | 0.51 | 0.00 | 72 | 1017.3 |
| 20260830154016 | 31 | 75 | 1.6 | 8.0 | 0.00 | 0.51 | 0.00 | 76 | 1017.3 |
| 20260830153016 | 31 | 115 | 3.2 | 9.7 | 0.00 | 0.51 | 0.00 | 74 | 1017.4 |
| 20260830152016 | 31 | 112 | 3.2 | 9.7 | 0.00 | 0.51 | 0.00 | 74 | 1017.5 |
| 20260830151016 | 31 | 106 | 3.2 | 9.7 | 0.00 | 0.51 | 0.00 | 74 | 1017.6 |
| 20260830150016 | 31 | 164 | 1.6 | 8.0 | 0.00 | 0.51 | 0.00 | 77 | 1017.6 |
| 20260830145016 | 31 | 93 | 3.2 | 9.7 | 0.00 | 0.51 | 0.00 | 76 | 1017.5 |
| 20260830144016 | 31 | 87 | 4.8 | 11.3 | 0.00 | 0.51 | 0.00 | 76 | 1017.5 |
| 20260830143017 | 31 | 103 | 3.2 | 9.7 | 0.00 | 0.51 | 0.00 | 77 | 1017.5 |
| 20260830142017 | 31 | 90 | 3.2 | 9.7 | 0.00 | 0.51 | 0.00 | 79 | 1017.7 |
| 20260830141017 | 31 | 67 | 3.2 | 8.0 | 0.00 | 0.51 | 0.00 | 79 | 1017.5 |
| 20260830140017 | 30 | 87 | 3.2 | 11.3 | 0.00 | 0.51 | 0.00 | 81 | 1017.6 |
| 20260830135017 | 30 | 98 | 3.2 | 9.7 | 0.00 | 0.51 | 0.00 | 82 | 1017.5 |
| 20260830133017 | 30 | 104 | 4.8 | 6.4 | 0.00 | 0.51 | 0.00 | 83 | 1017.3 |
| 20260830132017 | 29 | 37 | 1.6 | 4.8 | 0.00 | 0.51 | 0.00 | 85 | 1017.2 |
| 20260830131015 | 28 | 68 | 3.2 | 6.4 | 0.00 | 0.51 | 0.00 | 87 | 1017.2 |
| 20260830125015 | 27 | 47 | 3.2 | 6.4 | 0.00 | 0.51 | 0.00 | 93 | 1017.2 |
| 20260830124016 | 26 | 43 | 3.2 | 6.4 | 0.00 | 0.51 | 0.00 | 98 | 1017.2 |
| 20260830123016 | 25 | 38 | 4.8 | 6.4 | 0.00 | 0.51 | 0.00 | 100 | 1017.3 |
| 20260830122016 | 25 | 42 | 4.8 | 9.7 | 0.00 | 0.51 | 0.00 | 100 | 1017.2 |
| 20260830121016 | 24 | 42 | 4.8 | 8.0 | 0.00 | 0.51 | 0.00 | 100 | 1017.0 |
| 20260830120016 | 23 | 45 | 6.4 | 9.7 | 0.00 | 0.51 | 0.00 | 100 | 1017.0 |
| 20260830115019 | 23 | 48 | 4.8 | 8.0 | 0.00 | 0.51 | 0.00 | 100 | 1017.0 |
| 20260830114019 | 23 | 50 | 4.8 | 8.0 | 0.00 | 0.51 | 0.00 | 100 | 1016.8 |
| 20260830112019 | 22 | 49 | 3.2 | 4.8 | 0.00 | 0.51 | 0.00 | 100 | 1016.6 |
| 20260830111020 | 22 | 57 | 3.2 | 4.8 | 0.00 | 0.51 | 0.00 | 100 | 1016.4 |
| 20260830110020 | 22 | 53 | 3.2 | 4.8 | 0.00 | 0.51 | 0.00 | 100 | 1016.2 |
| 20260830103021 | 22 | 44 | 1.6 | 4.8 | 0.00 | 0.51 | 0.00 | 100 | 1015.6 |
| 20260830102021 | 22 | 58 | 0.0 | 3.2 | 0.00 | 0.51 | 0.00 | 100 | 1015.5 |
| 20260830101021 | 22 | 51 | 1.6 | 3.2 | 0.00 | 0.51 | 0.00 | 100 | 1015.6 |
| 20260830100021 | 22 | 45 | 1.6 | 4.8 | 0.00 | 0.51 | 0.00 | 100 | 1015.4 |
| 20260830095021 | 22 | 38 | 1.6 | 3.2 | 0.00 | 0.51 | 0.00 | 100 | 1015.4 |
| 20260830094021 | 22 | 47 | 1.6 | 4.8 | 0.00 | 0.51 | 0.00 | 100 | 1015.4 |
| 20260830093021 | 22 | 55 | 1.6 | 3.2 | 0.00 | 0.51 | 0.00 | 100 | 1015.4 |
| 20260830092021 | 22 | 51 | 1.6 | 3.2 | 0.00 | 0.51 | 0.00 | 100 | 1015.3 |
| 20260830091021 | 22 | 315 | 0.0 | 0.0 | 0.00 | 0.51 | 0.00 | 100 | 1015.4 |
| 20260830085022 | 22 | 60 | 0.0 | 1.6 | 0.00 | 0.51 | 0.00 | 100 | 1015.5 |
| 20260830084023 | 22 | 7 | 0.0 | 1.6 | 0.00 | 0.51 | 0.00 | 100 | 1015.6 |
| 20260830083022 | 22 | 32 | 1.6 | 3.2 | 0.00 | 0.51 | 0.00 | 100 | 1015.7 |
| 20260830082022 | 22 | 38 | 0.0 | 1.6 | 0.00 | 0.51 | 0.00 | 100 | 1015.8 |
| 20260830081023 | 22 | 53 | 1.6 | 3.2 | 0.00 | 0.51 | 0.00 | 100 | 1015.7 |
| 20260830080023 | 22 | 60 | 3.2 | 4.8 | 0.00 | 0.51 | 0.00 | 100 | 1015.9 |
| 20260830075023 | 22 | 63 | 3.2 | 3.2 | 0.00 | 0.51 | 0.00 | 100 | 1016.0 |
| 20260830074023 | 22 | 65 | 3.2 | 4.8 | 0.00 | 0.51 | 0.00 | 100 | 1016.1 |
| 20260830073023 | 22 | 68 | 0.0 | 1.6 | 0.00 | 0.51 | 0.00 | 100 | 1016.2 |
| 20260830072024 | 22 | 52 | 0.0 | 3.2 | 0.00 | 0.51 | 0.00 | 99 | 1016.3 |
| 20260830071024 | 22 | 45 | 0.0 | 1.6 | 0.00 | 0.51 | 0.00 | 99 | 1016.2 |
| 20260830070024 | 22 | 63 | 0.0 | 1.6 | 0.00 | 0.51 | 0.00 | 99 | 1016.2 |
| 20260830065024 | 22 | 49 | 1.6 | 3.2 | 0.00 | 0.51 | 0.00 | 99 | 1016.1 |
| 20260830064024 | 22 | 64 | 0.0 | 1.6 | 0.00 | 0.51 | 0.00 | 99 | 1016.0 |
| 20260830063024 | 22 | 50 | 0.0 | 1.6 | 0.00 | 0.51 | 0.00 | 99 | 1016.1 |
| 20260830061025 | 22 | 44 | 1.6 | 3.2 | 0.00 | 0.51 | 0.00 | 99 | 1016.5 |
| 20260830055025 | 22 | 46 | 1.6 | 4.8 | 0.00 | 0.51 | 0.00 | 99 | 1016.8 |
| 20260830054025 | 22 | 34 | 1.6 | 3.2 | 0.00 | 0.51 | 0.00 | 99 | 1016.7 |
| 20260830053026 | 22 | 28 | 1.6 | 3.2 | 0.00 | 0.51 | 0.00 | 99 | 1016.8 |
| 20260830052026 | 22 | 10 | 0.0 | 1.6 | 0.00 | 0.51 | 0.00 | 99 | 1016.7 |
| 20260830051026 | 22 | 52 | 0.0 | 1.6 | 0.00 | 0.51 | 0.00 | 99 | 1016.6 |
| 20260830050026 | 22 | 41 | 0.0 | 1.6 | 0.00 | 0.51 | 0.00 | 99 | 1016.8 |
| 20260830045026 | 22 | 17 | 0.0 | 0.0 | 0.00 | 0.51 | 0.00 | 99 | 1017.0 |
| 20260830044026 | 22 | 0.0 | 0.0 | 0.00 | 0.51 | 0.00 | 99 | 1017.3 | |
| 20260830043026 | 23 | 0.0 | 0.0 | 0.00 | 0.51 | 0.00 | 99 | 1017.4 | |
| 20260830042026 | 23 | 19 | 1.6 | 3.2 | 0.00 | 0.51 | 0.00 | 99 | 1017.3 |
| 20260830041027 | 23 | 0.0 | 0.0 | 0.00 | 0.51 | 0.00 | 98 | 1017.4 | |
| 20260830040027 | 23 | 3 | 0.0 | 1.6 | 0.00 | 0.51 | 0.00 | 98 | 1017.4 |
| 20260830035027 | 23 | 22 | 0.0 | 1.6 | 0.00 | 0.51 | 0.51 | 98 | 1017.4 |
| 20260830034028 | 23 | 25 | 1.6 | 3.2 | 0.00 | 0.51 | 0.51 | 98 | 1017.5 |
| 20260830033027 | 23 | 21 | 1.6 | 3.2 | 0.00 | 0.51 | 0.51 | 98 | 1017.6 |
| 20260830032027 | 23 | 38 | 0.0 | 0.0 | 0.00 | 0.51 | 0.51 | 98 | 1017.5 |
| 20260830030028 | 23 | 14 | 1.6 | 4.8 | 0.00 | 0.51 | 0.51 | 98 | 1017.3 |
| 20260830025028 | 23 | 18 | 0.0 | 1.6 | 0.00 | 0.51 | 0.51 | 98 | 1017.4 |
| 20260830024028 | 23 | 30 | 0.0 | 3.2 | 0.00 | 0.51 | 0.51 | 98 | 1017.3 |
| 20260830023028 | 23 | 11 | 1.6 | 3.2 | 0.00 | 0.51 | 0.51 | 98 | 1017.5 |
| 20260830022029 | 23 | 359 | 1.6 | 3.2 | 0.00 | 0.51 | 0.51 | 98 | 1017.6 |
| 20260830021029 | 23 | 40 | 1.6 | 4.8 | 0.00 | 0.51 | 0.51 | 98 | 1017.5 |
| 20260830014029 | 23 | 15 | 0.0 | 1.6 | 0.00 | 0.51 | 0.51 | 98 | 1017.3 |
| 20260830013029 | 23 | 46 | 1.6 | 3.2 | 0.00 | 0.51 | 0.51 | 98 | 1017.2 |
| 20260830012029 | 24 | 1 | 0.0 | 1.6 | 0.00 | 0.51 | 0.51 | 98 | 1017.1 |
| 20260830011018 | 24 | 77 | 1.6 | 4.8 | 0.00 | 0.51 | 0.51 | 98 | 1017.1 |